sensor_id;sensor_type;location;lat;lon;timestamp;P1;durP1;ratioP1;P2;durP2;ratioP2
36449;SDS011;22475;51.390;7.180;2024-01-10T00:01:15;12.05;;;7.35;;
36449;SDS011;22475;51.390;7.180;2024-01-10T00:03:42;14.43;;;8.13;;
36449;SDS011;22475;51.390;7.180;2024-01-10T00:06:09;23.70;;;7.07;;
36449;SDS011;22475;51.390;7.180;2024-01-10T00:08:36;10.95;;;7.07;;
36449;SDS011;22475;51.390;7.180;2024-01-10T00:11:05;12.48;;;7.47;;
36449;SDS011;22475;51.390;7.180;2024-01-10T00:13:31;11.43;;;8.00;;
36449;SDS011;22475;51.390;7.180;2024-01-10T00:15:59;12.57;;;7.65;;
36449;SDS011;22475;51.390;7.180;2024-01-10T00:18:26;11.90;;;8.10;;
36449;SDS011;22475;51.390;7.180;2024-01-10T00:20:52;11.65;;;6.95;;
36449;SDS011;22475;51.390;7.180;2024-01-10T00:23:19;21.88;;;8.63;;
36449;SDS011;22475;51.390;7.180;2024-01-10T00:25:45;15.35;;;8.20;;
36449;SDS011;22475;51.390;7.180;2024-01-10T00:28:14;13.00;;;7.05;;
36449;SDS011;22475;51.390;7.180;2024-01-10T00:30:41;14.73;;;8.23;;
36449;SDS011;22475;51.390;7.180;2024-01-10T00:33:08;10.32;;;6.78;;
36449;SDS011;22475;51.390;7.180;2024-01-10T00:35:37;9.48;;;6.78;;
36449;SDS011;22475;51.390;7.180;2024-01-10T00:38:04;13.90;;;7.55;;
36449;SDS011;22475;51.390;7.180;2024-01-10T00:40:31;13.52;;;7.78;;
36449;SDS011;22475;51.390;7.180;2024-01-10T00:42:57;11.50;;;7.50;;
36449;SDS011;22475;51.390;7.180;2024-01-10T00:45:25;10.05;;;6.80;;
36449;SDS011;22475;51.390;7.180;2024-01-10T00:47:52;12.23;;;6.90;;
36449;SDS011;22475;51.390;7.180;2024-01-10T00:50:19;10.70;;;7.40;;
36449;SDS011;22475;51.390;7.180;2024-01-10T00:52:46;19.85;;;8.35;;
36449;SDS011;22475;51.390;7.180;2024-01-10T00:55:13;10.02;;;6.60;;
36449;SDS011;22475;51.390;7.180;2024-01-10T00:57:40;8.13;;;6.45;;
36449;SDS011;22475;51.390;7.180;2024-01-10T01:00:07;14.02;;;7.55;;
36449;SDS011;22475;51.390;7.180;2024-01-10T01:02:37;7.88;;;6.22;;
36449;SDS011;22475;51.390;7.180;2024-01-10T01:05:05;11.40;;;7.22;;
36449;SDS011;22475;51.390;7.180;2024-01-10T01:07:32;15.02;;;7.75;;
36449;SDS011;22475;51.390;7.180;2024-01-10T01:09:59;8.48;;;6.22;;
36449;SDS011;22475;51.390;7.180;2024-01-10T01:12:26;10.45;;;6.35;;
36449;SDS011;22475;51.390;7.180;2024-01-10T01:14:52;12.27;;;6.57;;
36449;SDS011;22475;51.390;7.180;2024-01-10T01:17:19;11.75;;;6.20;;
36449;SDS011;22475;51.390;7.180;2024-01-10T01:19:47;8.48;;;6.72;;
36449;SDS011;22475;51.390;7.180;2024-01-10T01:22:14;11.10;;;6.15;;
36449;SDS011;22475;51.390;7.180;2024-01-10T01:24:41;14.40;;;7.13;;
36449;SDS011;22475;51.390;7.180;2024-01-10T01:27:08;13.63;;;6.78;;
36449;SDS011;22475;51.390;7.180;2024-01-10T01:29:35;9.35;;;5.85;;
36449;SDS011;22475;51.390;7.180;2024-01-10T01:32:02;9.70;;;6.43;;
36449;SDS011;22475;51.390;7.180;2024-01-10T01:34:29;10.52;;;6.35;;
36449;SDS011;22475;51.390;7.180;2024-01-10T01:36:57;7.30;;;6.35;;
36449;SDS011;22475;51.390;7.180;2024-01-10T01:39:26;10.38;;;6.85;;
36449;SDS011;22475;51.390;7.180;2024-01-10T01:41:52;12.32;;;6.47;;
36449;SDS011;22475;51.390;7.180;2024-01-10T01:44:19;10.48;;;6.60;;
36449;SDS011;22475;51.390;7.180;2024-01-10T01:46:46;13.07;;;7.15;;
36449;SDS011;22475;51.390;7.180;2024-01-10T01:49:14;10.20;;;6.72;;
36449;SDS011;22475;51.390;7.180;2024-01-10T01:51:41;7.68;;;5.55;;
36449;SDS011;22475;51.390;7.180;2024-01-10T01:54:10;12.60;;;6.68;;
36449;SDS011;22475;51.390;7.180;2024-01-10T01:56:37;11.02;;;7.43;;
36449;SDS011;22475;51.390;7.180;2024-01-10T01:59:05;11.55;;;6.38;;
36449;SDS011;22475;51.390;7.180;2024-01-10T02:01:32;11.75;;;6.95;;
36449;SDS011;22475;51.390;7.180;2024-01-10T02:04:00;10.70;;;6.43;;
36449;SDS011;22475;51.390;7.180;2024-01-10T02:06:28;9.77;;;6.70;;
36449;SDS011;22475;51.390;7.180;2024-01-10T02:08:55;9.50;;;6.53;;
36449;SDS011;22475;51.390;7.180;2024-01-10T02:11:24;11.93;;;6.47;;
36449;SDS011;22475;51.390;7.180;2024-01-10T02:13:52;10.23;;;6.30;;
36449;SDS011;22475;51.390;7.180;2024-01-10T02:16:20;15.07;;;7.25;;
36449;SDS011;22475;51.390;7.180;2024-01-10T02:18:48;10.13;;;6.82;;
36449;SDS011;22475;51.390;7.180;2024-01-10T02:21:14;9.55;;;6.18;;
36449;SDS011;22475;51.390;7.180;2024-01-10T02:23:41;9.60;;;5.95;;
36449;SDS011;22475;51.390;7.180;2024-01-10T02:26:09;16.48;;;6.82;;
36449;SDS011;22475;51.390;7.180;2024-01-10T02:28:36;11.55;;;6.75;;
36449;SDS011;22475;51.390;7.180;2024-01-10T02:31:03;13.48;;;8.02;;
36449;SDS011;22475;51.390;7.180;2024-01-10T02:33:30;7.95;;;5.65;;
36449;SDS011;22475;51.390;7.180;2024-01-10T02:35:57;11.27;;;7.07;;
36449;SDS011;22475;51.390;7.180;2024-01-10T02:38:24;8.45;;;5.53;;
36449;SDS011;22475;51.390;7.180;2024-01-10T02:40:52;14.23;;;7.10;;
36449;SDS011;22475;51.390;7.180;2024-01-10T02:43:22;10.38;;;6.95;;
36449;SDS011;22475;51.390;7.180;2024-01-10T02:45:48;10.43;;;6.90;;
36449;SDS011;22475;51.390;7.180;2024-01-10T02:48:15;11.45;;;6.78;;
36449;SDS011;22475;51.390;7.180;2024-01-10T02:50:42;9.15;;;6.20;;
36449;SDS011;22475;51.390;7.180;2024-01-10T02:53:09;13.27;;;6.25;;
36449;SDS011;22475;51.390;7.180;2024-01-10T02:55:35;14.73;;;7.13;;
36449;SDS011;22475;51.390;7.180;2024-01-10T02:58:02;8.10;;;5.57;;
36449;SDS011;22475;51.390;7.180;2024-01-10T03:00:30;12.35;;;7.40;;
36449;SDS011;22475;51.390;7.180;2024-01-10T03:02:57;13.02;;;6.88;;
36449;SDS011;22475;51.390;7.180;2024-01-10T03:05:24;8.85;;;5.70;;
36449;SDS011;22475;51.390;7.180;2024-01-10T03:07:51;12.95;;;7.10;;
36449;SDS011;22475;51.390;7.180;2024-01-10T03:10:17;7.22;;;5.70;;
36449;SDS011;22475;51.390;7.180;2024-01-10T03:12:44;10.63;;;6.03;;
36449;SDS011;22475;51.390;7.180;2024-01-10T03:15:11;13.73;;;7.45;;
36449;SDS011;22475;51.390;7.180;2024-01-10T03:17:39;6.38;;;4.97;;
36449;SDS011;22475;51.390;7.180;2024-01-10T03:20:06;10.75;;;6.93;;
36449;SDS011;22475;51.390;7.180;2024-01-10T03:22:34;12.05;;;6.85;;
36449;SDS011;22475;51.390;7.180;2024-01-10T03:25:01;9.00;;;6.05;;
36449;SDS011;22475;51.390;7.180;2024-01-10T03:27:28;13.70;;;8.38;;
36449;SDS011;22475;51.390;7.180;2024-01-10T03:29:54;12.40;;;7.40;;
36449;SDS011;22475;51.390;7.180;2024-01-10T03:32:21;12.32;;;5.93;;
36449;SDS011;22475;51.390;7.180;2024-01-10T03:34:49;9.27;;;6.53;;
36449;SDS011;22475;51.390;7.180;2024-01-10T03:37:17;11.55;;;6.95;;
36449;SDS011;22475;51.390;7.180;2024-01-10T03:39:44;14.20;;;6.93;;
36449;SDS011;22475;51.390;7.180;2024-01-10T03:42:11;9.07;;;5.88;;
36449;SDS011;22475;51.390;7.180;2024-01-10T03:44:37;12.05;;;7.13;;
36449;SDS011;22475;51.390;7.180;2024-01-10T03:47:04;7.20;;;5.78;;
36449;SDS011;22475;51.390;7.180;2024-01-10T03:49:31;14.30;;;6.88;;
36449;SDS011;22475;51.390;7.180;2024-01-10T03:51:59;10.43;;;6.82;;
36449;SDS011;22475;51.390;7.180;2024-01-10T03:54:26;10.85;;;7.10;;
36449;SDS011;22475;51.390;7.180;2024-01-10T03:56:52;11.68;;;6.93;;
36449;SDS011;22475;51.390;7.180;2024-01-10T03:59:19;11.63;;;7.07;;
36449;SDS011;22475;51.390;7.180;2024-01-10T04:01:46;9.82;;;6.43;;
36449;SDS011;22475;51.390;7.180;2024-01-10T04:04:13;10.93;;;6.93;;
36449;SDS011;22475;51.390;7.180;2024-01-10T04:06:39;13.50;;;7.55;;
36449;SDS011;22475;51.390;7.180;2024-01-10T04:09:08;13.70;;;6.40;;
36449;SDS011;22475;51.390;7.180;2024-01-10T04:11:35;12.32;;;6.57;;
36449;SDS011;22475;51.390;7.180;2024-01-10T04:14:02;13.98;;;7.57;;
36449;SDS011;22475;51.390;7.180;2024-01-10T04:16:30;8.38;;;6.05;;
36449;SDS011;22475;51.390;7.180;2024-01-10T04:18:57;9.65;;;6.32;;
36449;SDS011;22475;51.390;7.180;2024-01-10T04:21:24;14.20;;;7.57;;
36449;SDS011;22475;51.390;7.180;2024-01-10T04:23:50;8.98;;;6.10;;
36449;SDS011;22475;51.390;7.180;2024-01-10T04:26:19;12.23;;;6.75;;
36449;SDS011;22475;51.390;7.180;2024-01-10T04:28:45;10.35;;;5.78;;
36449;SDS011;22475;51.390;7.180;2024-01-10T04:31:12;11.82;;;6.32;;
36449;SDS011;22475;51.390;7.180;2024-01-10T04:33:39;11.65;;;6.38;;
36449;SDS011;22475;51.390;7.180;2024-01-10T04:36:06;14.30;;;7.45;;
36449;SDS011;22475;51.390;7.180;2024-01-10T04:38:33;11.82;;;7.05;;
36449;SDS011;22475;51.390;7.180;2024-01-10T04:41:00;9.43;;;6.15;;
36449;SDS011;22475;51.390;7.180;2024-01-10T04:43:28;14.90;;;7.55;;
36449;SDS011;22475;51.390;7.180;2024-01-10T04:45:55;10.13;;;6.32;;
36449;SDS011;22475;51.390;7.180;2024-01-10T04:48:21;10.93;;;7.03;;
36449;SDS011;22475;51.390;7.180;2024-01-10T04:50:48;10.27;;;6.45;;
36449;SDS011;22475;51.390;7.180;2024-01-10T04:53:15;11.98;;;6.43;;
36449;SDS011;22475;51.390;7.180;2024-01-10T04:55:42;12.43;;;7.32;;
36449;SDS011;22475;51.390;7.180;2024-01-10T04:58:09;14.35;;;8.00;;
36449;SDS011;22475;51.390;7.180;2024-01-10T05:00:37;12.95;;;6.97;;
36449;SDS011;22475;51.390;7.180;2024-01-10T05:03:03;15.18;;;7.32;;
36449;SDS011;22475;51.390;7.180;2024-01-10T05:05:31;13.60;;;6.97;;
36449;SDS011;22475;51.390;7.180;2024-01-10T05:07:58;12.85;;;7.65;;
36449;SDS011;22475;51.390;7.180;2024-01-10T05:10:26;13.15;;;8.00;;
36449;SDS011;22475;51.390;7.180;2024-01-10T05:12:53;11.07;;;6.93;;
36449;SDS011;22475;51.390;7.180;2024-01-10T05:15:20;10.60;;;6.97;;
36449;SDS011;22475;51.390;7.180;2024-01-10T05:17:48;12.27;;;8.25;;
36449;SDS011;22475;51.390;7.180;2024-01-10T05:20:14;16.23;;;9.10;;
36449;SDS011;22475;51.390;7.180;2024-01-10T05:22:42;13.52;;;8.57;;
36449;SDS011;22475;51.390;7.180;2024-01-10T05:25:08;14.35;;;8.02;;
36449;SDS011;22475;51.390;7.180;2024-01-10T05:27:35;10.95;;;7.43;;
36449;SDS011;22475;51.390;7.180;2024-01-10T05:30:02;15.35;;;8.82;;
36449;SDS011;22475;51.390;7.180;2024-01-10T05:32:29;17.38;;;8.75;;
36449;SDS011;22475;51.390;7.180;2024-01-10T05:34:57;16.02;;;7.88;;
36449;SDS011;22475;51.390;7.180;2024-01-10T05:37:24;11.50;;;7.25;;
36449;SDS011;22475;51.390;7.180;2024-01-10T05:39:51;14.73;;;7.75;;
36449;SDS011;22475;51.390;7.180;2024-01-10T05:42:18;14.65;;;8.50;;
36449;SDS011;22475;51.390;7.180;2024-01-10T05:44:45;11.48;;;7.90;;
36449;SDS011;22475;51.390;7.180;2024-01-10T05:47:11;14.77;;;8.63;;
36449;SDS011;22475;51.390;7.180;2024-01-10T05:49:38;14.65;;;7.93;;
36449;SDS011;22475;51.390;7.180;2024-01-10T05:52:06;13.15;;;8.05;;
36449;SDS011;22475;51.390;7.180;2024-01-10T05:54:33;16.42;;;8.23;;
36449;SDS011;22475;51.390;7.180;2024-01-10T05:57:00;14.27;;;8.73;;
36449;SDS011;22475;51.390;7.180;2024-01-10T05:59:27;18.58;;;9.40;;
36449;SDS011;22475;51.390;7.180;2024-01-10T06:01:55;12.52;;;8.43;;
36449;SDS011;22475;51.390;7.180;2024-01-10T06:04:22;11.90;;;7.03;;
36449;SDS011;22475;51.390;7.180;2024-01-10T06:06:49;11.65;;;7.47;;
36449;SDS011;22475;51.390;7.180;2024-01-10T06:09:17;14.50;;;7.90;;
36449;SDS011;22475;51.390;7.180;2024-01-10T06:11:47;14.27;;;7.85;;
36449;SDS011;22475;51.390;7.180;2024-01-10T06:14:13;15.40;;;8.55;;
36449;SDS011;22475;51.390;7.180;2024-01-10T06:16:40;17.65;;;9.45;;
36449;SDS011;22475;51.390;7.180;2024-01-10T06:19:07;17.88;;;8.55;;
36449;SDS011;22475;51.390;7.180;2024-01-10T06:21:35;15.13;;;8.30;;
36449;SDS011;22475;51.390;7.180;2024-01-10T06:24:02;17.95;;;8.50;;
36449;SDS011;22475;51.390;7.180;2024-01-10T06:26:30;16.48;;;8.85;;
36449;SDS011;22475;51.390;7.180;2024-01-10T06:28:57;16.88;;;8.38;;
36449;SDS011;22475;51.390;7.180;2024-01-10T06:31:24;14.77;;;8.27;;
36449;SDS011;22475;51.390;7.180;2024-01-10T06:33:51;18.65;;;9.98;;
36449;SDS011;22475;51.390;7.180;2024-01-10T06:36:17;20.73;;;10.38;;
36449;SDS011;22475;51.390;7.180;2024-01-10T06:38:44;16.00;;;10.60;;
36449;SDS011;22475;51.390;7.180;2024-01-10T06:41:12;23.52;;;11.27;;
36449;SDS011;22475;51.390;7.180;2024-01-10T06:43:41;19.92;;;11.10;;
36449;SDS011;22475;51.390;7.180;2024-01-10T06:46:09;17.85;;;9.93;;
36449;SDS011;22475;51.390;7.180;2024-01-10T06:48:36;17.85;;;9.73;;
36449;SDS011;22475;51.390;7.180;2024-01-10T06:51:03;12.52;;;8.52;;
36449;SDS011;22475;51.390;7.180;2024-01-10T06:53:35;22.38;;;9.68;;
36449;SDS011;22475;51.390;7.180;2024-01-10T06:56:02;15.30;;;8.38;;
36449;SDS011;22475;51.390;7.180;2024-01-10T06:58:29;15.40;;;9.75;;
36449;SDS011;22475;51.390;7.180;2024-01-10T07:00:57;17.00;;;10.30;;
36449;SDS011;22475;51.390;7.180;2024-01-10T07:03:25;16.63;;;9.65;;
36449;SDS011;22475;51.390;7.180;2024-01-10T07:05:52;21.02;;;9.15;;
36449;SDS011;22475;51.390;7.180;2024-01-10T07:08:19;13.10;;;9.32;;
36449;SDS011;22475;51.390;7.180;2024-01-10T07:10:45;17.17;;;9.27;;
36449;SDS011;22475;51.390;7.180;2024-01-10T07:13:12;17.80;;;10.07;;
36449;SDS011;22475;51.390;7.180;2024-01-10T07:15:39;17.50;;;9.80;;
36449;SDS011;22475;51.390;7.180;2024-01-10T07:18:07;19.08;;;8.57;;
36449;SDS011;22475;51.390;7.180;2024-01-10T07:20:34;20.77;;;10.88;;
36449;SDS011;22475;51.390;7.180;2024-01-10T07:23:02;18.98;;;10.00;;
36449;SDS011;22475;51.390;7.180;2024-01-10T07:25:29;14.95;;;9.00;;
36449;SDS011;22475;51.390;7.180;2024-01-10T07:27:56;17.40;;;10.30;;
36449;SDS011;22475;51.390;7.180;2024-01-10T07:30:24;19.88;;;11.35;;
36449;SDS011;22475;51.390;7.180;2024-01-10T07:32:50;14.52;;;9.23;;
36449;SDS011;22475;51.390;7.180;2024-01-10T07:35:18;22.55;;;9.63;;
36449;SDS011;22475;51.390;7.180;2024-01-10T07:37:46;17.92;;;10.85;;
36449;SDS011;22475;51.390;7.180;2024-01-10T07:40:12;23.17;;;9.93;;
36449;SDS011;22475;51.390;7.180;2024-01-10T07:42:39;17.13;;;9.50;;
36449;SDS011;22475;51.390;7.180;2024-01-10T07:45:06;19.65;;;9.85;;
36449;SDS011;22475;51.390;7.180;2024-01-10T07:47:34;20.45;;;10.23;;
36449;SDS011;22475;51.390;7.180;2024-01-10T07:50:02;17.23;;;10.73;;
36449;SDS011;22475;51.390;7.180;2024-01-10T07:52:32;15.65;;;10.75;;
36449;SDS011;22475;51.390;7.180;2024-01-10T07:54:59;22.52;;;11.38;;
36449;SDS011;22475;51.390;7.180;2024-01-10T07:57:26;17.48;;;9.20;;
36449;SDS011;22475;51.390;7.180;2024-01-10T07:59:53;20.52;;;10.05;;
36449;SDS011;22475;51.390;7.180;2024-01-10T08:02:20;15.10;;;9.63;;
36449;SDS011;22475;51.390;7.180;2024-01-10T08:04:46;24.40;;;12.05;;
36449;SDS011;22475;51.390;7.180;2024-01-10T08:07:13;27.90;;;14.57;;
36449;SDS011;22475;51.390;7.180;2024-01-10T08:09:41;24.67;;;12.57;;
36449;SDS011;22475;51.390;7.180;2024-01-10T08:12:08;27.42;;;13.75;;
36449;SDS011;22475;51.390;7.180;2024-01-10T08:14:36;27.13;;;14.57;;
36449;SDS011;22475;51.390;7.180;2024-01-10T08:17:03;24.48;;;14.10;;
36449;SDS011;22475;51.390;7.180;2024-01-10T08:19:31;26.25;;;12.88;;
36449;SDS011;22475;51.390;7.180;2024-01-10T08:21:58;25.20;;;12.30;;
36449;SDS011;22475;51.390;7.180;2024-01-10T08:24:25;21.67;;;12.40;;
36449;SDS011;22475;51.390;7.180;2024-01-10T08:26:53;25.05;;;12.80;;
36449;SDS011;22475;51.390;7.180;2024-01-10T08:29:19;20.80;;;12.45;;
36449;SDS011;22475;51.390;7.180;2024-01-10T09:55:48;20.30;;;12.05;;
36449;SDS011;22475;51.390;7.180;2024-01-10T09:58:15;26.77;;;13.73;;
36449;SDS011;22475;51.390;7.180;2024-01-10T10:00:43;26.45;;;13.20;;
36449;SDS011;22475;51.390;7.180;2024-01-10T10:03:10;22.08;;;13.25;;
36449;SDS011;22475;51.390;7.180;2024-01-10T10:05:37;30.15;;;14.73;;
36449;SDS011;22475;51.390;7.180;2024-01-10T10:08:07;35.10;;;14.05;;
36449;SDS011;22475;51.390;7.180;2024-01-10T10:10:36;25.38;;;14.63;;
36449;SDS011;22475;51.390;7.180;2024-01-10T10:13:07;31.08;;;13.07;;
36449;SDS011;22475;51.390;7.180;2024-01-10T10:15:36;34.30;;;13.55;;
36449;SDS011;22475;51.390;7.180;2024-01-10T10:18:03;34.20;;;15.65;;
36449;SDS011;22475;51.390;7.180;2024-01-10T10:20:30;26.52;;;13.50;;
36449;SDS011;22475;51.390;7.180;2024-01-10T10:22:58;28.60;;;14.43;;
36449;SDS011;22475;51.390;7.180;2024-01-10T10:25:27;31.77;;;15.15;;
36449;SDS011;22475;51.390;7.180;2024-01-10T10:27:57;24.40;;;12.10;;
36449;SDS011;22475;51.390;7.180;2024-01-10T10:30:24;29.05;;;13.13;;
36449;SDS011;22475;51.390;7.180;2024-01-10T10:32:51;21.52;;;13.00;;
36449;SDS011;22475;51.390;7.180;2024-01-10T10:35:19;25.77;;;14.68;;
36449;SDS011;22475;51.390;7.180;2024-01-10T10:37:46;29.35;;;12.57;;
36449;SDS011;22475;51.390;7.180;2024-01-10T10:40:14;35.75;;;14.50;;
36449;SDS011;22475;51.390;7.180;2024-01-10T10:42:43;25.65;;;12.23;;
36449;SDS011;22475;51.390;7.180;2024-01-10T10:45:14;31.95;;;15.98;;
36449;SDS011;22475;51.390;7.180;2024-01-10T10:47:42;28.83;;;14.75;;
36449;SDS011;22475;51.390;7.180;2024-01-10T10:50:12;33.28;;;16.15;;
36449;SDS011;22475;51.390;7.180;2024-01-10T10:52:42;25.85;;;14.02;;
36449;SDS011;22475;51.390;7.180;2024-01-10T10:55:13;36.72;;;15.32;;
36449;SDS011;22475;51.390;7.180;2024-01-10T10:57:42;27.75;;;14.23;;
36449;SDS011;22475;51.390;7.180;2024-01-10T11:00:11;26.00;;;13.45;;
36449;SDS011;22475;51.390;7.180;2024-01-10T11:02:41;31.58;;;13.93;;
36449;SDS011;22475;51.390;7.180;2024-01-10T11:05:09;32.10;;;13.88;;
36449;SDS011;22475;51.390;7.180;2024-01-10T11:07:36;25.98;;;14.25;;
36449;SDS011;22475;51.390;7.180;2024-01-10T11:10:04;31.02;;;14.63;;
36449;SDS011;22475;51.390;7.180;2024-01-10T11:12:40;31.13;;;14.15;;
36449;SDS011;22475;51.390;7.180;2024-01-10T11:15:24;32.55;;;15.80;;
36449;SDS011;22475;51.390;7.180;2024-01-10T11:21:01;31.58;;;14.32;;
36449;SDS011;22475;51.390;7.180;2024-01-10T11:23:40;33.42;;;14.88;;
36449;SDS011;22475;51.390;7.180;2024-01-10T11:26:09;38.88;;;15.57;;
36449;SDS011;22475;51.390;7.180;2024-01-10T11:28:38;23.98;;;14.00;;
36449;SDS011;22475;51.390;7.180;2024-01-10T11:31:07;29.17;;;15.65;;
36449;SDS011;22475;51.390;7.180;2024-01-10T11:33:35;30.73;;;15.52;;
36449;SDS011;22475;51.390;7.180;2024-01-10T11:36:14;32.40;;;14.63;;
36449;SDS011;22475;51.390;7.180;2024-01-10T11:38:43;36.83;;;16.77;;
36449;SDS011;22475;51.390;7.180;2024-01-10T11:41:21;35.30;;;16.48;;
36449;SDS011;22475;51.390;7.180;2024-01-10T11:46:55;31.38;;;15.55;;
36449;SDS011;22475;51.390;7.180;2024-01-10T11:49:22;38.30;;;15.60;;
36449;SDS011;22475;51.390;7.180;2024-01-10T11:51:52;34.60;;;15.10;;
36449;SDS011;22475;51.390;7.180;2024-01-10T11:54:38;32.22;;;15.38;;
36449;SDS011;22475;51.390;7.180;2024-01-10T11:57:13;25.70;;;14.88;;
36449;SDS011;22475;51.390;7.180;2024-01-10T11:59:41;33.47;;;15.98;;
36449;SDS011;22475;51.390;7.180;2024-01-10T12:02:11;36.13;;;15.20;;
36449;SDS011;22475;51.390;7.180;2024-01-10T12:04:38;34.63;;;15.23;;
36449;SDS011;22475;51.390;7.180;2024-01-10T12:07:06;34.75;;;15.57;;
36449;SDS011;22475;51.390;7.180;2024-01-10T12:09:34;34.90;;;16.65;;
36449;SDS011;22475;51.390;7.180;2024-01-10T12:12:01;34.10;;;17.25;;
36449;SDS011;22475;51.390;7.180;2024-01-10T12:14:28;30.33;;;14.40;;
36449;SDS011;22475;51.390;7.180;2024-01-10T12:16:56;29.52;;;14.35;;
36449;SDS011;22475;51.390;7.180;2024-01-10T12:19:24;30.65;;;15.30;;
36449;SDS011;22475;51.390;7.180;2024-01-10T12:21:51;34.42;;;16.10;;
36449;SDS011;22475;51.390;7.180;2024-01-10T12:24:18;32.80;;;16.30;;
36449;SDS011;22475;51.390;7.180;2024-01-10T12:26:45;31.90;;;16.05;;
36449;SDS011;22475;51.390;7.180;2024-01-10T12:29:13;27.17;;;16.15;;
36449;SDS011;22475;51.390;7.180;2024-01-10T12:31:45;35.78;;;16.45;;
36449;SDS011;22475;51.390;7.180;2024-01-10T12:34:12;30.73;;;15.85;;
36449;SDS011;22475;51.390;7.180;2024-01-10T12:36:40;27.40;;;15.07;;
36449;SDS011;22475;51.390;7.180;2024-01-10T12:39:07;30.55;;;14.63;;
36449;SDS011;22475;51.390;7.180;2024-01-10T12:41:34;32.58;;;15.13;;
36449;SDS011;22475;51.390;7.180;2024-01-10T12:44:03;29.48;;;14.90;;
36449;SDS011;22475;51.390;7.180;2024-01-10T12:46:31;24.63;;;14.37;;
36449;SDS011;22475;51.390;7.180;2024-01-10T12:48:59;32.80;;;16.13;;
36449;SDS011;22475;51.390;7.180;2024-01-10T12:51:27;33.45;;;16.25;;
36449;SDS011;22475;51.390;7.180;2024-01-10T12:53:56;35.30;;;15.40;;
36449;SDS011;22475;51.390;7.180;2024-01-10T12:56:24;39.25;;;17.83;;
36449;SDS011;22475;51.390;7.180;2024-01-10T12:58:51;40.33;;;16.80;;
36449;SDS011;22475;51.390;7.180;2024-01-10T13:01:19;41.10;;;17.15;;
36449;SDS011;22475;51.390;7.180;2024-01-10T13:03:46;33.05;;;16.33;;
36449;SDS011;22475;51.390;7.180;2024-01-10T13:06:14;42.80;;;18.52;;
36449;SDS011;22475;51.390;7.180;2024-01-10T13:08:41;37.00;;;16.98;;
36449;SDS011;22475;51.390;7.180;2024-01-10T13:11:09;39.05;;;17.98;;
36449;SDS011;22475;51.390;7.180;2024-01-10T13:13:36;36.38;;;16.90;;
36449;SDS011;22475;51.390;7.180;2024-01-10T13:16:03;38.78;;;15.30;;
36449;SDS011;22475;51.390;7.180;2024-01-10T13:18:31;41.38;;;18.15;;
36449;SDS011;22475;51.390;7.180;2024-01-10T13:20:58;39.85;;;16.00;;
36449;SDS011;22475;51.390;7.180;2024-01-10T13:23:25;36.25;;;17.35;;
36449;SDS011;22475;51.390;7.180;2024-01-10T13:25:52;35.65;;;16.52;;
36449;SDS011;22475;51.390;7.180;2024-01-10T13:28:20;36.38;;;15.85;;
36449;SDS011;22475;51.390;7.180;2024-01-10T13:30:47;36.63;;;17.40;;
36449;SDS011;22475;51.390;7.180;2024-01-10T13:33:15;33.22;;;16.20;;
36449;SDS011;22475;51.390;7.180;2024-01-10T13:35:43;40.85;;;17.73;;
36449;SDS011;22475;51.390;7.180;2024-01-10T13:38:10;34.30;;;17.23;;
36449;SDS011;22475;51.390;7.180;2024-01-10T13:40:37;36.05;;;17.00;;
36449;SDS011;22475;51.390;7.180;2024-01-10T13:43:04;45.55;;;17.30;;
36449;SDS011;22475;51.390;7.180;2024-01-10T13:45:32;40.05;;;16.63;;
36449;SDS011;22475;51.390;7.180;2024-01-10T13:47:58;38.28;;;16.55;;
36449;SDS011;22475;51.390;7.180;2024-01-10T13:50:26;42.72;;;17.25;;
36449;SDS011;22475;51.390;7.180;2024-01-10T13:52:54;32.75;;;15.95;;
36449;SDS011;22475;51.390;7.180;2024-01-10T13:55:21;40.50;;;17.95;;
36449;SDS011;22475;51.390;7.180;2024-01-10T13:57:49;35.60;;;15.73;;
36449;SDS011;22475;51.390;7.180;2024-01-10T14:00:18;34.80;;;16.42;;
36449;SDS011;22475;51.390;7.180;2024-01-10T14:02:47;41.05;;;19.92;;
36449;SDS011;22475;51.390;7.180;2024-01-10T14:05:14;37.33;;;16.98;;
36449;SDS011;22475;51.390;7.180;2024-01-10T14:07:41;48.35;;;16.23;;
36449;SDS011;22475;51.390;7.180;2024-01-10T14:10:09;42.35;;;20.50;;
36449;SDS011;22475;51.390;7.180;2024-01-10T14:12:38;42.83;;;17.88;;
36449;SDS011;22475;51.390;7.180;2024-01-10T14:15:05;37.72;;;17.05;;
36449;SDS011;22475;51.390;7.180;2024-01-10T14:17:34;41.10;;;17.58;;
36449;SDS011;22475;51.390;7.180;2024-01-10T14:20:02;36.83;;;17.40;;
36449;SDS011;22475;51.390;7.180;2024-01-10T14:22:31;49.10;;;18.57;;
36449;SDS011;22475;51.390;7.180;2024-01-10T14:24:58;40.03;;;18.35;;
36449;SDS011;22475;51.390;7.180;2024-01-10T14:27:25;38.70;;;17.00;;
36449;SDS011;22475;51.390;7.180;2024-01-10T14:29:52;41.33;;;18.90;;
36449;SDS011;22475;51.390;7.180;2024-01-10T14:32:18;37.30;;;18.08;;
36449;SDS011;22475;51.390;7.180;2024-01-10T14:34:46;40.33;;;19.63;;
36449;SDS011;22475;51.390;7.180;2024-01-10T14:37:14;47.15;;;19.80;;
36449;SDS011;22475;51.390;7.180;2024-01-10T14:39:41;45.38;;;18.80;;
36449;SDS011;22475;51.390;7.180;2024-01-10T14:42:07;43.47;;;18.30;;
36449;SDS011;22475;51.390;7.180;2024-01-10T14:44:35;31.23;;;17.20;;
36449;SDS011;22475;51.390;7.180;2024-01-10T14:47:02;36.67;;;17.65;;
36449;SDS011;22475;51.390;7.180;2024-01-10T14:49:29;39.22;;;17.45;;
36449;SDS011;22475;51.390;7.180;2024-01-10T14:51:56;46.92;;;18.55;;
36449;SDS011;22475;51.390;7.180;2024-01-10T14:54:24;36.88;;;17.95;;
36449;SDS011;22475;51.390;7.180;2024-01-10T14:56:51;32.03;;;17.48;;
36449;SDS011;22475;51.390;7.180;2024-01-10T14:59:18;43.85;;;17.33;;
36449;SDS011;22475;51.390;7.180;2024-01-10T15:01:45;41.88;;;17.90;;
36449;SDS011;22475;51.390;7.180;2024-01-10T15:04:12;29.77;;;16.75;;
36449;SDS011;22475;51.390;7.180;2024-01-10T15:06:42;44.25;;;17.75;;
36449;SDS011;22475;51.390;7.180;2024-01-10T15:09:10;40.92;;;18.42;;
36449;SDS011;22475;51.390;7.180;2024-01-10T15:11:39;34.40;;;15.90;;
36449;SDS011;22475;51.390;7.180;2024-01-10T15:14:06;31.35;;;16.70;;
36449;SDS011;22475;51.390;7.180;2024-01-10T15:16:33;39.10;;;16.98;;
36449;SDS011;22475;51.390;7.180;2024-01-10T15:19:00;32.38;;;16.60;;
36449;SDS011;22475;51.390;7.180;2024-01-10T15:21:27;31.15;;;16.38;;
36449;SDS011;22475;51.390;7.180;2024-01-10T15:23:54;36.70;;;18.27;;
36449;SDS011;22475;51.390;7.180;2024-01-10T15:26:21;40.78;;;18.30;;
36449;SDS011;22475;51.390;7.180;2024-01-10T15:28:50;40.53;;;17.13;;
36449;SDS011;22475;51.390;7.180;2024-01-10T15:31:19;35.63;;;18.27;;
36449;SDS011;22475;51.390;7.180;2024-01-10T15:33:46;38.47;;;16.45;;
36449;SDS011;22475;51.390;7.180;2024-01-10T15:36:13;34.80;;;16.40;;
36449;SDS011;22475;51.390;7.180;2024-01-10T15:38:40;38.30;;;16.90;;
36449;SDS011;22475;51.390;7.180;2024-01-10T15:41:07;40.80;;;16.98;;
36449;SDS011;22475;51.390;7.180;2024-01-10T15:43:35;38.45;;;19.10;;
36449;SDS011;22475;51.390;7.180;2024-01-10T15:46:04;35.25;;;19.02;;
36449;SDS011;22475;51.390;7.180;2024-01-10T15:48:31;33.60;;;18.60;;
36449;SDS011;22475;51.390;7.180;2024-01-10T15:50:58;30.20;;;17.13;;
36449;SDS011;22475;51.390;7.180;2024-01-10T15:53:26;35.88;;;18.40;;
36449;SDS011;22475;51.390;7.180;2024-01-10T15:55:53;43.97;;;21.23;;
36449;SDS011;22475;51.390;7.180;2024-01-10T15:58:22;42.35;;;20.20;;
36449;SDS011;22475;51.390;7.180;2024-01-10T16:00:49;37.63;;;19.40;;